createdAt,value
2023-11-01T00:04:39.756Z,11.70
2023-11-01T00:09:41.848Z,11.76
2023-11-01T00:14:43.882Z,11.78
2023-11-01T00:19:45.934Z,11.84
2023-11-01T00:24:48.954Z,11.81
2023-11-01T00:29:51.124Z,11.85
2023-11-01T00:34:53.149Z,11.84
2023-11-01T00:39:55.365Z,11.80
2023-11-01T00:44:57.366Z,11.63
2023-11-01T00:49:59.476Z,11.70
2023-11-01T00:55:01.854Z,11.72
2023-11-01T01:00:04.264Z,11.59
2023-11-01T01:05:07.031Z,11.64
2023-11-01T01:10:09.249Z,11.59
2023-11-01T01:15:12.334Z,11.62
2023-11-01T01:20:14.426Z,11.53
2023-11-01T01:25:16.573Z,11.33
2023-11-01T01:30:19.014Z,11.23
2023-11-01T01:35:21.083Z,11.32
2023-11-01T01:40:23.103Z,11.36
2023-11-01T01:45:25.203Z,11.50
2023-11-01T01:50:27.262Z,11.61
2023-11-01T01:55:29.953Z,11.62
2023-11-01T02:00:33.572Z,11.62
2023-11-01T02:05:36.105Z,11.46
2023-11-01T02:10:38.846Z,11.47
2023-11-01T02:15:42.484Z,11.49
2023-11-01T02:20:47.239Z,11.43
2023-11-01T02:25:49.277Z,11.44
2023-11-01T02:30:51.541Z,11.51
2023-11-01T02:35:53.626Z,11.60
2023-11-01T02:40:55.753Z,11.60
2023-11-01T02:45:57.915Z,11.40
2023-11-01T02:50:59.923Z,11.44
2023-11-01T02:56:01.908Z,11.48
2023-11-01T03:01:04.343Z,11.59
2023-11-01T03:06:06.693Z,11.56
2023-11-01T03:11:08.693Z,11.42
2023-11-01T03:16:10.809Z,11.44
2023-11-01T03:21:12.823Z,11.34
2023-11-01T03:26:14.802Z,11.34
2023-11-01T03:31:20.248Z,11.38
2023-11-01T03:36:22.641Z,11.50
2023-11-01T03:41:24.651Z,11.60
2023-11-01T03:46:26.824Z,11.52
2023-11-01T03:51:29.357Z,11.60
2023-11-01T03:56:31.312Z,11.72
2023-11-01T04:01:33.308Z,11.69
2023-11-01T04:06:35.324Z,11.63
2023-11-01T04:11:37.597Z,11.53
2023-11-01T04:16:39.659Z,11.54
2023-11-01T04:21:41.669Z,11.52
2023-11-01T04:26:43.653Z,11.62
2023-11-01T04:31:45.758Z,11.69
2023-11-01T04:36:48.549Z,11.63
2023-11-01T04:41:50.591Z,11.50
2023-11-01T04:46:52.653Z,11.51
2023-11-01T04:51:54.633Z,11.52
2023-11-01T04:56:56.737Z,11.65
2023-11-01T05:02:00.084Z,11.70
2023-11-01T05:07:02.062Z,11.67
2023-11-01T05:12:04.522Z,11.67
2023-11-01T05:17:07.045Z,11.48
2023-11-01T05:22:09.062Z,11.35
2023-11-01T05:27:11.136Z,11.35
2023-11-01T05:32:13.143Z,11.38
2023-11-01T05:37:15.083Z,11.46
2023-11-01T05:42:17.182Z,11.66
2023-11-01T05:47:19.241Z,11.69
2023-11-01T05:52:21.804Z,11.62
2023-11-01T05:57:24.000Z,11.58
2023-11-01T06:02:26.228Z,11.48
2023-11-01T06:07:28.293Z,11.57
2023-11-01T06:12:30.521Z,11.43
2023-11-01T06:17:32.568Z,11.35
2023-11-01T06:22:34.910Z,11.45
2023-11-01T06:27:37.127Z,11.62
2023-11-01T06:32:39.247Z,11.63
2023-11-01T06:37:41.310Z,11.78
2023-11-01T06:42:43.390Z,11.91
2023-11-01T06:47:45.502Z,11.97
2023-11-01T06:52:47.950Z,12.00
2023-11-01T06:57:50.686Z,11.87
2023-11-01T07:02:53.087Z,12.00
2023-11-01T07:07:58.074Z,12.10
2023-11-01T07:13:00.243Z,12.19
2023-11-01T07:18:02.661Z,12.23
2023-11-01T07:23:04.806Z,12.30
2023-11-01T07:28:06.943Z,12.31
2023-11-01T07:33:09.152Z,12.39
2023-11-01T07:38:11.294Z,12.54
2023-11-01T07:43:13.408Z,12.49
2023-11-01T07:48:15.730Z,12.48
2023-11-01T07:56:43.436Z,12.27
2023-11-01T08:01:45.460Z,12.25
2023-11-01T08:06:47.905Z,12.41
2023-11-01T08:11:50.366Z,12.52
2023-11-01T08:16:52.640Z,12.64
2023-11-01T08:21:54.689Z,12.90
2023-11-01T08:26:56.847Z,12.94
2023-11-01T08:31:59.173Z,13.04
2023-11-01T08:37:01.529Z,13.07
2023-11-01T08:42:03.733Z,13.21
2023-11-01T08:47:44.378Z,13.28
2023-11-01T08:52:46.656Z,13.71
2023-11-01T08:57:48.839Z,13.91
2023-11-01T09:02:50.860Z,14.12
2023-11-01T09:07:52.903Z,14.37
2023-11-01T09:12:54.954Z,14.63
2023-11-01T09:17:57.021Z,14.91
2023-11-01T09:23:00.323Z,14.97
2023-11-01T09:28:02.430Z,14.99
2023-11-01T09:33:04.581Z,15.16
2023-11-01T09:38:06.652Z,14.98
2023-11-01T09:43:10.659Z,15.04
2023-11-01T09:48:13.647Z,15.05
2023-11-01T09:53:17.504Z,14.93
2023-11-01T09:58:22.395Z,15.05
2023-11-01T10:03:24.899Z,15.06
2023-11-01T10:08:26.962Z,15.10
2023-11-01T10:18:07.055Z,14.78
2023-11-01T10:23:09.293Z,15.14
2023-11-01T10:28:14.537Z,15.20
2023-11-01T10:33:20.327Z,15.14
2023-11-01T10:38:22.546Z,15.02
2023-11-01T10:43:28.705Z,14.82
2023-11-01T10:48:31.245Z,14.67
2023-11-01T10:53:37.365Z,14.69
2023-11-01T10:58:45.190Z,14.84
2023-11-01T11:04:14.229Z,14.65
2023-11-01T11:09:23.509Z,14.83
2023-11-01T11:14:42.635Z,14.76
2023-11-01T11:20:07.727Z,14.72
2023-11-01T11:25:11.628Z,14.90
2023-11-01T11:30:20.098Z,14.66
2023-11-01T11:35:25.998Z,14.88
2023-11-01T11:40:29.905Z,15.00
2023-11-01T11:45:32.128Z,15.19
2023-11-01T11:50:34.324Z,15.05
2023-11-01T11:55:44.729Z,14.91
2023-11-01T12:00:47.326Z,14.85
2023-11-01T12:06:01.162Z,14.91
2023-11-01T12:11:07.040Z,14.94
2023-11-01T12:16:13.114Z,14.97
2023-11-01T12:21:17.539Z,15.19
2023-11-01T12:26:20.368Z,15.24
2023-11-01T12:31:22.488Z,15.32
2023-11-01T12:36:31.995Z,15.45
2023-11-01T12:41:35.759Z,15.41
2023-11-01T12:46:39.626Z,15.64
2023-11-01T12:51:41.931Z,15.73
2023-11-01T12:56:44.868Z,15.77
2023-11-01T13:01:46.919Z,15.81
2023-11-01T13:06:51.804Z,15.73
2023-11-01T13:11:55.000Z,15.62
2023-11-01T13:16:57.612Z,15.56
2023-11-01T13:21:59.876Z,15.48
2023-11-01T13:27:10.293Z,15.39
2023-11-01T13:32:12.483Z,15.39
2023-11-01T13:37:16.161Z,15.10
2023-11-01T13:42:18.474Z,15.02
2023-11-01T13:47:22.994Z,15.02
2023-11-01T13:52:26.770Z,15.04
2023-11-01T13:57:29.316Z,14.84
2023-11-01T14:02:32.848Z,14.68
2023-11-01T14:07:34.992Z,14.51
2023-11-01T14:12:38.078Z,14.47
2023-11-01T14:17:40.398Z,14.39
2023-11-01T14:22:43.228Z,14.38
2023-11-01T14:27:45.555Z,14.35
2023-11-01T14:32:48.473Z,14.43
2023-11-01T14:37:50.718Z,14.36
2023-11-01T14:42:52.839Z,14.29
2023-11-01T14:47:57.375Z,14.29
2023-11-01T14:52:59.556Z,14.29
2023-11-01T14:58:01.868Z,14.27
2023-11-01T15:03:22.553Z,14.23
2023-11-01T15:08:24.729Z,14.01
2023-11-01T15:13:26.786Z,13.97
2023-11-01T15:18:29.182Z,13.95
2023-11-01T15:23:33.582Z,13.97
2023-11-01T15:28:35.768Z,13.87
2023-11-01T15:33:38.043Z,13.88
2023-11-01T15:38:40.374Z,13.84
2023-11-01T15:43:43.361Z,13.81
2023-11-01T15:48:45.644Z,13.73
2023-11-01T15:53:49.349Z,13.64
2023-11-01T15:58:51.617Z,13.42
2023-11-01T16:03:53.888Z,13.40
2023-11-01T16:08:56.277Z,13.39
2023-11-01T16:13:58.292Z,13.39
2023-11-01T16:19:00.332Z,13.35
2023-11-01T16:24:03.272Z,13.25
2023-11-01T16:29:06.037Z,13.21
2023-11-01T16:34:26.804Z,13.10
2023-11-01T16:39:28.776Z,12.95
2023-11-01T16:44:30.886Z,12.78
2023-11-01T16:49:36.140Z,12.60
2023-11-01T16:54:39.561Z,12.53
2023-11-01T17:00:00.121Z,12.54
2023-11-01T17:05:03.409Z,12.52
2023-11-01T17:10:07.261Z,12.57
2023-11-01T17:15:09.947Z,12.56
2023-11-01T17:20:12.591Z,12.67
2023-11-01T17:25:54.441Z,12.77
2023-11-01T17:30:57.510Z,12.77
2023-11-01T17:36:21.251Z,12.94
2023-11-01T17:41:54.606Z,13.04
2023-11-01T17:47:05.108Z,13.09
2023-11-01T17:52:09.897Z,13.10
2023-11-01T17:57:12.449Z,13.11
2023-11-01T18:02:33.003Z,13.01
2023-11-01T18:07:37.539Z,13.06
2023-11-01T18:12:40.970Z,13.12
2023-11-01T18:17:43.116Z,13.21
2023-11-01T18:22:46.307Z,13.22
2023-11-01T18:27:48.274Z,13.16
2023-11-01T18:32:50.314Z,13.19
2023-11-01T18:37:54.416Z,13.08
2023-11-01T18:42:58.784Z,13.10
2023-11-01T18:48:00.916Z,12.73
2023-11-01T18:53:05.984Z,12.54
2023-11-01T18:58:13.925Z,12.53
2023-11-01T19:03:20.031Z,12.35
2023-11-01T19:08:22.171Z,12.23
2023-11-01T19:13:24.876Z,12.06
2023-11-01T19:18:27.012Z,11.94
2023-11-01T19:23:29.249Z,11.82
2023-11-01T19:28:32.824Z,11.77
2023-11-01T19:33:34.905Z,11.69
2023-11-01T19:38:37.205Z,11.61
2023-11-01T19:43:40.077Z,11.52
2023-11-01T19:48:42.358Z,11.44
2023-11-01T19:53:44.679Z,11.34
2023-11-01T19:58:47.320Z,11.30
2023-11-01T20:03:49.475Z,11.31
2023-11-01T20:08:51.641Z,11.29
2023-11-01T20:13:53.774Z,11.26
2023-11-01T20:18:55.820Z,11.36
2023-11-01T20:23:57.915Z,11.32
2023-11-01T20:29:00.826Z,11.47
2023-11-01T20:34:02.964Z,11.42
2023-11-01T20:39:05.410Z,11.61
2023-11-01T20:44:07.506Z,11.76
2023-11-01T20:49:11.405Z,11.76
2023-11-01T20:54:13.822Z,11.78
2023-11-01T20:59:15.914Z,11.85
2023-11-01T21:04:18.094Z,11.80
2023-11-01T21:09:20.215Z,11.90
2023-11-01T21:14:22.333Z,11.80
2023-11-01T21:19:24.401Z,11.83
2023-11-01T21:24:26.561Z,11.87
2023-11-01T21:29:28.640Z,11.89
2023-11-01T21:34:30.784Z,11.98
2023-11-01T21:39:33.787Z,11.90
2023-11-01T21:44:40.186Z,11.85
2023-11-01T21:49:42.326Z,11.87
2023-11-01T21:54:44.316Z,11.87
2023-11-01T21:59:46.894Z,11.80
2023-11-01T22:04:51.722Z,11.82
2023-11-01T22:09:56.936Z,11.91
2023-11-01T22:14:59.047Z,11.94
2023-11-01T22:20:01.086Z,11.92
2023-11-01T22:25:08.208Z,11.83
2023-11-01T22:30:10.883Z,11.87
2023-11-01T22:35:16.388Z,11.93
2023-11-01T22:40:18.324Z,11.85
2023-11-01T22:45:20.270Z,11.76
2023-11-01T22:50:22.223Z,11.70
2023-11-01T22:55:24.229Z,11.76
2023-11-01T23:00:44.045Z,11.72
2023-11-01T23:05:46.599Z,11.73
2023-11-01T23:10:49.434Z,11.71
2023-11-01T23:15:53.846Z,11.72
2023-11-01T23:20:57.878Z,11.67
2023-11-01T23:25:59.858Z,11.62
2023-11-01T23:31:02.067Z,11.59
2023-11-01T23:36:09.265Z,11.59
2023-11-01T23:41:37.036Z,11.38
2023-11-01T23:46:40.090Z,11.25
2023-11-01T23:51:56.183Z,11.01
2023-11-01T23:56:58.149Z,11.11
